Time;durP1;ratioP1;P1;durP2;ratioP2;P2;SDS_P1;SDS_P2;PMS_P1;PMS_P2;Temp;Humidity;BMP_temperature;BMP_pressure;BME280_temperature;BME280_humidity;BME280_pressure;Samples;Min_cycle;Max_cycle;Signal;HPM_P1;HPM_P2
2023/01/09 00:15:39;;;;;;;1.27;0.75;;;;;;;;;;6181238;22;20103;-71
2023/01/09 00:18:17;;;;;;;1.92;0.65;;;;;;;;;;6119207;23;20116;-71
2023/01/09 00:20:58;;;;;;;2.25;0.90;;;;;;;;;;6137340;23;20020;-72
2023/01/09 00:23:27;;;;;;;5.05;1.08;;;;;;;;;;6106725;23;20095;-71
2023/01/09 00:26:07;;;;;;;1.30;0.80;;;;;;;;;;6134497;23;20029;-71
2023/01/09 00:28:45;;;;;;;1.20;0.60;;;;;;;;;;6093196;23;20214;-72
2023/01/09 00:31:24;;;;;;;3.60;0.90;;;;;;;;;;6143999;23;20109;-70
2023/01/09 00:33:54;;;;;;;1.08;0.70;;;;;;;;;;6132452;23;20027;-71
2023/01/09 00:36:23;;;;;;;0.90;0.63;;;;;;;;;;6128165;23;20108;-71
2023/01/09 00:38:58;;;;;;;;;;;;;;;;;;6142133;23;20021;-72
2023/01/09 00:41:45;;;;;;;2.58;0.60;;;;;;;;;;6117045;22;19920;-72
2023/01/09 00:44:17;;;;;;;1.92;0.93;;;;;;;;;;6133181;23;20024;-70
2023/01/09 00:46:49;;;;;;;0.77;0.45;;;;;;;;;;6183592;22;20021;-71
2023/01/09 00:49:21;;;;;;;2.40;0.82;;;;;;;;;;6132730;23;20340;-71
2023/01/09 00:51:59;;;;;;;3.50;0.70;;;;;;;;;;6157069;23;20020;-71
2023/01/09 00:57:12;;;;;;;0.85;0.55;;;;;;;;;;6120393;23;20047;-72
2023/01/09 00:59:51;;;;;;;1.35;0.50;;;;;;;;;;6110411;23;20131;-71
2023/01/09 01:02:24;;;;;;;0.90;0.60;;;;;;;;;;6157779;23;20350;-72
2023/01/09 01:07:50;;;;;;;0.77;0.40;;;;;;;;;;6150821;23;20020;-72
2023/01/09 01:10:48;;;;;;;1.38;0.60;;;;;;;;;;6108452;23;20025;-71
2023/01/09 01:16:00;;;;;;;2.03;0.63;;;;;;;;;;6090555;23;20039;-71
2023/01/09 01:18:40;;;;;;;1.55;0.63;;;;;;;;;;6103099;23;20064;-71
2023/01/09 01:21:07;;;;;;;1.38;0.60;;;;;;;;;;6132373;23;20048;-72
2023/01/09 01:26:18;;;;;;;1.65;0.65;;;;;;;;;;6144088;23;20024;-72
2023/01/09 01:28:47;;;;;;;0.50;0.50;;;;;;;;;;6129314;23;20029;-72
2023/01/09 01:31:21;;;;;;;1.33;0.60;;;;;;;;;;6129758;23;20024;-71
2023/01/09 01:33:50;;;;;;;3.03;0.60;;;;;;;;;;6109794;23;21239;-71
2023/01/09 01:36:17;;;;;;;2.50;0.65;;;;;;;;;;6148383;23;20104;-72
2023/01/09 01:38:50;;;;;;;1.52;0.70;;;;;;;;;;6156101;22;20029;-71
2023/01/09 01:41:38;;;;;;;1.48;0.60;;;;;;;;;;6135148;23;20028;-72
2023/01/09 01:47:32;;;;;;;0.85;0.52;;;;;;;;;;6102220;23;20045;-72
2023/01/09 01:50:03;;;;;;;1.40;0.60;;;;;;;;;;6097195;23;20097;-72
2023/01/09 01:52:35;;;;;;;1.60;0.80;;;;;;;;;;6036124;23;20021;-72
2023/01/09 01:55:08;;;;;;;0.88;0.60;;;;;;;;;;6081635;23;20025;-72
2023/01/09 01:57:43;;;;;;;1.20;0.60;;;;;;;;;;6045482;23;20360;-72
2023/01/09 02:00:16;;;;;;;1.25;0.50;;;;;;;;;;6099853;23;20024;-72
2023/01/09 02:02:47;;;;;;;1.45;0.70;;;;;;;;;;6156086;23;20024;-71
2023/01/09 02:05:23;;;;;;;0.93;0.60;;;;;;;;;;6145270;23;20025;-71
2023/01/09 02:07:50;;;;;;;1.08;0.50;;;;;;;;;;6106173;23;20270;-71
2023/01/09 02:10:17;;;;;;;2.50;0.70;;;;;;;;;;6144056;23;20035;-72
2023/01/09 02:12:46;;;;;;;1.10;0.57;;;;;;;;;;6123607;23;20028;-72
2023/01/09 02:15:16;;;;;;;;;;;;;;;;;;6147836;23;20021;-71
2023/01/09 02:18:02;;;;;;;0.95;0.52;;;;;;;;;;6107808;23;19916;-72
2023/01/09 02:23:25;;;;;;;2.58;0.80;;;;;;;;;;6074046;23;20473;-73
2023/01/09 02:26:00;;;;;;;1.60;0.70;;;;;;;;;;6114063;23;20023;-73
2023/01/09 02:28:40;;;;;;;1.80;0.90;;;;;;;;;;6086868;23;20099;-73
2023/01/09 02:31:20;;;;;;;1.88;0.60;;;;;;;;;;6159616;23;20091;-73
2023/01/09 02:33:53;;;;;;;2.20;0.75;;;;;;;;;;6145451;23;20024;-72
2023/01/09 02:36:31;;;;;;;1.52;0.75;;;;;;;;;;6120771;23;20028;-71
2023/01/09 02:39:10;;;;;;;1.05;0.63;;;;;;;;;;6106806;23;20039;-73
2023/01/09 02:41:42;;;;;;;0.90;0.68;;;;;;;;;;6135024;23;20107;-73
2023/01/09 02:44:12;;;;;;;0.95;0.70;;;;;;;;;;6127589;23;20067;-72
2023/01/09 02:47:00;;;;;;;3.83;0.88;;;;;;;;;;6123078;23;20029;-71
2023/01/09 02:49:45;;;;;;;0.95;0.60;;;;;;;;;;6086357;23;20032;-72
2023/01/09 02:52:27;;;;;;;1.95;0.80;;;;;;;;;;6115532;23;20028;-73
2023/01/09 02:54:58;;;;;;;6.20;0.70;;;;;;;;;;6168697;23;20032;-73
2023/01/09 02:57:41;;;;;;;1.60;0.57;;;;;;;;;;6073484;23;20091;-74
2023/01/09 03:00:10;;;;;;;1.90;0.70;;;;;;;;;;6147393;23;20056;-73
2023/01/09 03:02:44;;;;;;;1.30;0.75;;;;;;;;;;6108034;23;20027;-72
2023/01/09 06:43:14;;;;;;;1.92;1.00;;;;;;;;;;4884011;28;20430;-74
2023/01/09 06:45:44;;;;;;;6.47;0.90;;;;;;;;;;4939489;28;20077;-75
2023/01/09 06:48:14;;;;;;;4.35;1.08;;;;;;;;;;4918076;28;20058;-74
2023/01/09 07:20:00;;;;;;;2.33;1.00;;;;;;;;;;6148135;22;20030;-71
2023/01/09 07:22:27;;;;;;;4.35;0.85;;;;;;;;;;6114803;23;20025;-70
2023/01/09 07:24:53;;;;;;;4.55;1.40;;;;;;;;;;6068071;23;20112;-70
2023/01/09 07:27:20;;;;;;;3.25;1.17;;;;;;;;;;6112073;23;20483;-71
2023/01/09 07:29:46;;;;;;;8.23;1.27;;;;;;;;;;6116324;23;20033;-70
2023/01/09 07:32:13;;;;;;;5.00;1.25;;;;;;;;;;6060293;23;20302;-71
2023/01/09 07:34:40;;;;;;;7.68;1.25;;;;;;;;;;6092721;23;20045;-74
2023/01/09 07:37:15;;;;;;;3.22;0.90;;;;;;;;;;6009252;23;20061;-74
2023/01/09 07:39:48;;;;;;;7.05;1.33;;;;;;;;;;6015892;23;20030;-72
2023/01/09 07:45:01;;;;;;;3.45;1.13;;;;;;;;;;5019729;27;20412;-73
2023/01/09 07:47:33;;;;;;;4.05;1.23;;;;;;;;;;4982334;28;20308;-73
2023/01/09 07:50:20;;;;;;;4.82;1.40;;;;;;;;;;5001804;28;20127;-72
2023/01/09 07:52:50;;;;;;;6.05;1.50;;;;;;;;;;4908500;28;20061;-72
2023/01/09 07:55:17;;;;;;;3.08;1.35;;;;;;;;;;5010337;28;20049;-72
2023/01/09 07:57:47;;;;;;;5.32;1.30;;;;;;;;;;4983414;28;20191;-72
2023/01/09 08:00:25;;;;;;;4.90;1.70;;;;;;;;;;4997194;28;20056;-72
2023/01/09 08:08:13;;;;;;;5.75;1.15;;;;;;;;;;5052540;27;20453;-74
2023/01/09 08:10:48;;;;;;;4.50;0.93;;;;;;;;;;4919962;28;20062;-71
2023/01/09 08:13:25;;;;;;;;;;;;;;;;;;;;;
2023/01/09 08:16:01;;;;;;;3.90;1.00;;;;;;;;;;4903447;28;20076;-70
2023/01/09 08:18:37;;;;;;;3.05;0.98;;;;;;;;;;4868545;29;20053;-71
2023/01/09 08:21:03;;;;;;;4.10;1.00;;;;;;;;;;4885876;29;20059;-71
2023/01/09 08:23:49;;;;;;;2.83;1.17;;;;;;;;;;4860794;28;20366;-71
2023/01/09 08:26:21;;;;;;;4.80;0.90;;;;;;;;;;4941489;28;20108;-72
2023/01/09 08:28:48;;;;;;;2.20;0.95;;;;;;;;;;4939086;28;20151;-71
2023/01/09 08:31:18;;;;;;;4.35;1.00;;;;;;;;;;4914189;28;20241;-71
2023/01/09 08:33:44;;;;;;;1.83;0.88;;;;;;;;;;4973095;28;20332;-71
2023/01/09 08:36:11;;;;;;;7.82;1.15;;;;;;;;;;4969548;28;20049;-71
2023/01/09 08:38:38;;;;;;;2.38;1.20;;;;;;;;;;4992377;28;20057;-72
2023/01/09 08:49:26;;;;;;;4.72;1.20;;;;;;;;;;4976118;28;20274;-71
2023/01/09 08:51:53;;;;;;;1.65;1.00;;;;;;;;;;5006354;28;20052;-71
2023/01/09 08:54:20;;;;;;;6.45;1.30;;;;;;;;;;5002550;28;20073;-70
2023/01/09 08:56:46;;;;;;;5.30;1.15;;;;;;;;;;4982383;28;20053;-70
2023/01/09 08:59:16;;;;;;;3.63;1.17;;;;;;;;;;4990387;28;20156;-71
2023/01/09 09:01:43;;;;;;;2.47;1.23;;;;;;;;;;4991925;28;20062;-70
2023/01/09 09:04:10;;;;;;;3.40;1.23;;;;;;;;;;4994859;28;20162;-71
2023/01/09 09:06:40;;;;;;;2.78;1.42;;;;;;;;;;4967663;28;20081;-71
2023/01/09 09:09:12;;;;;;;2.35;1.00;;;;;;;;;;5005684;28;20053;-71
2023/01/09 09:11:44;;;;;;;2.83;1.27;;;;;;;;;;4981367;28;20160;-70
2023/01/09 09:17:01;;;;;;;2.70;1.17;;;;;;;;;;4992468;28;20087;-71
2023/01/09 09:19:27;;;;;;;3.42;1.30;;;;;;;;;;4974839;28;20148;-71
2023/01/09 09:21:55;;;;;;;5.20;1.40;;;;;;;;;;4970340;28;20061;-70
2023/01/09 09:24:26;;;;;;;2.20;1.10;;;;;;;;;;4965427;28;20049;-73
2023/01/09 09:27:08;;;;;;;6.15;1.30;;;;;;;;;;4961895;28;20125;-71
2023/01/09 09:29:35;;;;;;;3.17;1.02;;;;;;;;;;4995432;28;20049;-73
2023/01/09 09:32:05;;;;;;;2.30;1.00;;;;;;;;;;5002343;28;20064;-70
2023/01/09 09:34:37;;;;;;;2.95;1.20;;;;;;;;;;4967616;28;20128;-70
2023/01/09 09:37:03;;;;;;;1.88;1.02;;;;;;;;;;4982603;28;20057;-69
2023/01/09 09:39:35;;;;;;;6.18;1.35;;;;;;;;;;4992832;28;20060;-70
2023/01/09 09:45:07;;;;;;;2.67;1.00;;;;;;;;;;5001714;28;20057;-70
2023/01/09 09:47:44;;;;;;;5.15;1.20;;;;;;;;;;4977239;28;20144;-70
2023/01/09 09:50:18;;;;;;;2.50;1.00;;;;;;;;;;4988727;28;20058;-71
2023/01/09 09:52:48;;;;;;;3.20;1.10;;;;;;;;;;4988058;28;20133;-70
2023/01/09 09:55:16;;;;;;;1.98;1.10;;;;;;;;;;4982941;28;20050;-71
2023/01/09 09:57:43;;;;;;;;;;;;;;;;;;4997308;28;20061;-70
2023/01/09 10:00:15;;;;;;;2.63;1.20;;;;;;;;;;4991515;28;19929;-70
2023/01/09 10:02:49;;;;;;;2.83;0.88;;;;;;;;;;4974524;28;20150;-71
2023/01/09 10:05:19;;;;;;;4.30;1.02;;;;;;;;;;4967493;28;20065;-71
2023/01/09 10:07:48;;;;;;;2.15;0.98;;;;;;;;;;4917426;28;20065;-76
2023/01/09 10:10:49;;;;;;;2.72;1.00;;;;;;;;;;5023418;28;20117;-73
2023/01/09 10:19:15;;;;;;;4.25;1.27;;;;;;;;;;4989080;28;20796;-73
2023/01/09 10:21:46;;;;;;;2.22;0.85;;;;;;;;;;4928960;28;20068;-73
2023/01/09 10:46:03;;;;;;;3.03;1.20;;;;;;;;;;6271624;22;20024;31
2023/01/09 10:48:35;;;;;;;5.18;1.20;;;;;;;;;;6180805;22;20023;-71
2023/01/09 10:54:22;;;;;;;4.25;1.10;;;;;;;;;;6132795;23;20103;-73
2023/01/09 11:56:14;;;;;;;3.38;0.95;;;;;;;;;;6126704;22;20030;-80
2023/01/09 12:39:13;;;;;;;7.25;1.10;;;;;;;;;;6263190;22;20031;-72
2023/01/09 12:42:05;;;;;;;6.20;1.15;;;;;;;;;;6291981;22;20018;-74
2023/01/09 14:06:38;;;;;;;4.88;1.10;;;;;;;;;;6220802;22;20020;31
2023/01/09 14:09:20;;;;;;;2.35;0.70;;;;;;;;;;6074353;23;20108;-81
2023/01/09 14:53:20;;;;;;;1.98;0.85;;;;;;;;;;6261304;22;1631931;-83
2023/01/09 17:38:14;;;;;;;6.57;1.10;;;;;;;;;;6303611;22;20019;-72
2023/01/09 17:40:43;;;;;;;4.43;1.38;;;;;;;;;;6169032;22;20024;-72
2023/01/09 17:43:11;;;;;;;6.90;1.20;;;;;;;;;;6107363;23;20151;-72
2023/01/09 17:45:40;;;;;;;3.35;1.20;;;;;;;;;;6151544;22;20222;-71
2023/01/09 17:48:21;;;;;;;6.30;1.42;;;;;;;;;;6171107;22;20023;-70
2023/01/09 17:53:16;;;;;;;5.82;1.50;;;;;;;;;;6018736;23;20025;-72
2023/01/09 17:55:46;;;;;;;5.28;1.17;;;;;;;;;;6078679;23;20034;-72
2023/01/09 17:58:24;;;;;;;4.03;1.17;;;;;;;;;;6205249;22;20051;-71
2023/01/09 18:00:51;;;;;;;4.63;1.20;;;;;;;;;;6119127;22;20029;-71
2023/01/09 18:03:32;;;;;;;5.95;1.40;;;;;;;;;;6058734;23;20380;-72
2023/01/09 18:05:59;;;;;;;6.53;1.58;;;;;;;;;;6150475;23;20090;-70
2023/01/09 18:08:27;;;;;;;3.85;1.17;;;;;;;;;;6132957;22;20052;-71
2023/01/09 18:11:04;;;;;;;5.53;1.20;;;;;;;;;;6180426;22;20080;-71
2023/01/09 18:13:32;;;;;;;3.55;1.20;;;;;;;;;;6172818;23;20471;-71
2023/01/09 18:16:02;;;;;;;3.83;1.00;;;;;;;;;;6116621;23;20024;-70
2023/01/09 18:18:30;;;;;;;4.55;1.27;;;;;;;;;;6088754;23;20057;-71
2023/01/09 18:21:15;;;;;;;6.15;1.33;;;;;;;;;;6139288;23;20084;-72
2023/01/09 18:33:25;;;;;;;5.30;1.35;;;;;;;;;;5956211;23;20030;-72
2023/01/09 18:35:52;;;;;;;6.20;1.50;;;;;;;;;;6036798;23;20034;-71
2023/01/09 18:38:20;;;;;;;5.40;1.45;;;;;;;;;;6110476;23;20028;-71
2023/01/09 18:40:48;;;;;;;2.60;1.15;;;;;;;;;;6091423;23;20025;-71
2023/01/09 18:43:15;;;;;;;5.78;1.77;;;;;;;;;;6116808;23;20262;-72
2023/01/09 18:45:42;;;;;;;6.53;1.52;;;;;;;;;;6115350;23;20024;-71
2023/01/09 18:48:10;;;;;;;3.47;1.17;;;;;;;;;;6054932;23;20028;-71
2023/01/09 18:50:38;;;;;;;4.82;1.50;;;;;;;;;;6084432;23;20025;-71
2023/01/09 18:53:06;;;;;;;5.28;1.58;;;;;;;;;;6103368;23;20102;-71
2023/01/09 18:55:36;;;;;;;4.30;1.02;;;;;;;;;;6145730;23;20347;-72
2023/01/09 18:58:04;;;;;;;3.25;1.35;;;;;;;;;;6126782;23;20024;-71
2023/01/09 19:00:34;;;;;;;4.47;1.20;;;;;;;;;;6132019;23;20025;-71
2023/01/09 19:03:10;;;;;;;5.40;1.50;;;;;;;;;;6119461;23;20036;-72
2023/01/09 19:05:38;;;;;;;5.13;1.40;;;;;;;;;;6136371;23;20490;-71
2023/01/09 19:08:05;;;;;;;4.53;1.30;;;;;;;;;;6187168;22;20478;-71
2023/01/09 19:10:33;;;;;;;5.63;1.45;;;;;;;;;;6228557;22;20116;-72
2023/01/09 19:13:00;;;;;;;3.88;1.10;;;;;;;;;;6192659;22;20027;-71
2023/01/09 19:15:27;;;;;;;3.08;1.23;;;;;;;;;;6166113;22;20024;-72
2023/01/09 19:26:16;;;;;;;6.15;1.65;;;;;;;;;;6066519;23;20037;-71
2023/01/09 19:36:27;;;;;;;4.00;1.42;;;;;;;;;;5107479;27;20146;-73
2023/01/09 19:38:54;;;;;;;;;;;;;;;;;;5027086;28;20059;-69
2023/01/09 19:41:21;;;;;;;4.72;1.50;;;;;;;;;;4988904;28;20117;-73
2023/01/09 19:43:48;;;;;;;8.80;1.63;;;;;;;;;;4964275;28;20049;-72
2023/01/09 19:51:25;;;;;;;7.70;1.40;;;;;;;;;;4988942;27;20563;-73
2023/01/09 19:53:52;;;;;;;3.13;1.00;;;;;;;;;;4975970;28;20069;-74
2023/01/09 19:56:20;;;;;;;7.15;1.75;;;;;;;;;;4917355;28;20311;-74
2023/01/09 19:58:48;;;;;;;6.55;1.33;;;;;;;;;;4936979;28;20072;-71
2023/01/09 20:01:20;;;;;;;4.50;1.60;;;;;;;;;;4898096;28;20078;-71
2023/01/09 20:06:13;;;;;;;6.25;1.50;;;;;;;;;;4819092;29;20059;-71
2023/01/09 20:13:54;;;;;;;5.13;1.60;;;;;;;;;;5019145;27;1545065;-70
2023/01/09 20:16:27;;;;;;;7.72;2.00;;;;;;;;;;4998878;28;20061;-70
2023/01/09 20:18:53;;;;;;;2.88;1.10;;;;;;;;;;5000933;28;20135;-71
2023/01/09 20:21:22;;;;;;;6.53;1.63;;;;;;;;;;5001272;28;20057;-72
2023/01/09 20:23:49;;;;;;;4.75;1.27;;;;;;;;;;5016995;28;20151;-69
2023/01/09 20:26:16;;;;;;;3.17;1.40;;;;;;;;;;5026227;28;20064;-70
2023/01/09 20:28:43;;;;;;;4.80;1.40;;;;;;;;;;5004082;28;20048;-70
2023/01/09 20:31:14;;;;;;;5.22;1.40;;;;;;;;;;5006210;28;20087;-73
2023/01/09 20:33:41;;;;;;;4.50;1.17;;;;;;;;;;4951210;28;20054;-72
2023/01/09 20:36:09;;;;;;;5.90;1.45;;;;;;;;;;4972140;28;20115;-71
2023/01/09 20:38:36;;;;;;;5.47;1.35;;;;;;;;;;4985413;28;20053;-72
2023/01/09 20:41:09;;;;;;;5.67;1.50;;;;;;;;;;4984013;28;20063;-72
2023/01/09 20:43:37;;;;;;;7.72;1.48;;;;;;;;;;4920152;28;21220;-72
2023/01/09 20:46:05;;;;;;;5.05;1.60;;;;;;;;;;4985090;28;20149;-72
2023/01/09 20:53:45;;;;;;;6.88;2.03;;;;;;;;;;4982708;27;20529;-71
2023/01/09 20:56:12;;;;;;;4.95;1.45;;;;;;;;;;4981616;28;20095;-72
2023/01/09 21:29:25;;;;;;;3.72;1.10;;;;;;;;;;6137200;22;1421085;-71
2023/01/09 21:34:19;;;;;;;7.57;1.70;;;;;;;;;;6045178;23;20053;-70
2023/01/09 21:36:47;;;;;;;3.88;1.33;;;;;;;;;;6047247;23;20049;-72
2023/01/09 21:39:15;;;;;;;6.38;1.73;;;;;;;;;;6005248;23;20026;-73
2023/01/09 22:00:08;;;;;;;6.05;1.65;;;;;;;;;;6079020;22;1404572;-71
2023/01/09 22:02:35;;;;;;;8.48;1.70;;;;;;;;;;5994195;23;20077;-71
2023/01/09 22:05:12;;;;;;;7.03;1.75;;;;;;;;;;6021660;23;20022;-72
2023/01/09 22:07:39;;;;;;;7.15;1.58;;;;;;;;;;5998673;23;20023;-72
2023/01/09 22:10:11;;;;;;;4.25;1.45;;;;;;;;;;5989231;23;20093;-70
2023/01/09 22:12:38;;;;;;;5.75;1.52;;;;;;;;;;6004391;23;20112;-70
2023/01/09 22:15:27;;;;;;;7.32;1.60;;;;;;;;;;5947437;23;20055;-72
2023/01/09 22:18:06;;;;;;;;;;;;;;;;;;5909213;23;20024;-71
2023/01/09 22:22:58;;;;;;;7.83;1.47;;;;;;;;;;5946961;23;20340;-72
2023/01/09 22:25:26;;;;;;;6.25;1.70;;;;;;;;;;5973736;23;20278;-73
2023/01/09 22:57:20;;;;;;;10.98;1.77;;;;;;;;;;6267871;22;20028;-71
2023/01/09 22:59:47;;;;;;;8.13;1.95;;;;;;;;;;6177566;22;20030;-72
2023/01/09 23:02:15;;;;;;;5.43;2.35;;;;;;;;;;6182762;22;20027;-72
2023/01/09 23:04:45;;;;;;;5.07;1.38;;;;;;;;;;6087071;23;20026;-73
2023/01/09 23:10:09;;;;;;;5.63;1.60;;;;;;;;;;5993089;23;20027;-70
2023/01/09 23:12:39;;;;;;;6.70;1.75;;;;;;;;;;5968919;23;20093;-70
2023/01/09 23:15:09;;;;;;;7.70;1.80;;;;;;;;;;6032602;23;20073;-71
2023/01/09 23:17:57;;;;;;;5.93;1.85;;;;;;;;;;6056211;23;20030;-70
2023/01/09 23:23:21;;;;;;;7.82;1.77;;;;;;;;;;5920196;23;20031;-71
2023/01/09 23:25:48;;;;;;;10.85;1.80;;;;;;;;;;6070074;23;20021;-71
2023/01/09 23:28:17;;;;;;;6.93;1.55;;;;;;;;;;5976307;23;20144;-70
2023/01/09 23:30:46;;;;;;;11.30;1.90;;;;;;;;;;6004295;23;20029;-70
2023/01/09 23:33:13;;;;;;;4.72;1.52;;;;;;;;;;6047793;23;20033;-73
2023/01/09 23:35:40;;;;;;;5.00;1.50;;;;;;;;;;6084042;23;20034;-70
2023/01/09 23:38:06;;;;;;;5.97;1.65;;;;;;;;;;6154639;22;20031;-71
2023/01/09 23:40:35;;;;;;;7.88;1.60;;;;;;;;;;6195604;22;20027;-72
2023/01/09 23:43:10;;;;;;;;;;;;;;;;;;6230328;22;20489;-70
2023/01/09 23:45:39;;;;;;;5.28;1.52;;;;;;;;;;6224864;22;19946;-70
2023/01/09 23:48:06;;;;;;;8.30;1.67;;;;;;;;;;6157390;23;20085;-70
2023/01/09 23:50:33;;;;;;;10.10;1.63;;;;;;;;;;6130020;23;20062;-72
2023/01/09 23:53:00;;;;;;;8.90;1.77;;;;;;;;;;6133223;23;20028;-71
2023/01/09 23:55:27;;;;;;;5.65;1.45;;;;;;;;;;6157213;22;20127;-71
2023/01/09 23:57:54;;;;;;;4.00;1.27;;;;;;;;;;6141234;23;20045;-72
